Decoded TAF's for Botswana

   
 
Print Page
 
 

Francistown - Botswana, FBFT

ADDS - TAFS form results

Aviation Digital Data Service (ADDS)

Output produced by TAFs form (1204 UTC 21 September 2017)
found at http://aviationweather.gov/adds/tafs/
 
Forecast for: FBFT (FRANCISTOWN , BW)
Text: TAF FBFT 210900Z 2112/2121 03012KT CAVOK
Forecast period: 1200 to 2100 UTC 21 September 2017
Forecast type: FROM: standard forecast or significant change
Winds: from the NNE (30 degrees) at 14 MPH (12 knots; 6.2 m/s)
Visibility: 6 or more miles (10+ km)
Clouds: not forecast
Weather: NSW  (no significant weather)

Array
Ghanzi - Botswana, FBGZ

ADDS - TAFS form results

Aviation Digital Data Service (ADDS)

Output produced by TAFs form (1204 UTC 21 September 2017)
found at http://aviationweather.gov/adds/tafs/
 
You entered "FBGZ"

Sorry, either there are no data available for your request or you did not enter any valid ICAO airport abbreviations.

See stations.txt for a list of known METAR and TAF locations. Then go back to the ADDS METARs or TAFs page and try again
 
Please try again and, if problems persist, then send mail to ncep.awc.adds@noaa.gov
Array
Kasane - Botswana, FBKE

ADDS - TAFS form results

Aviation Digital Data Service (ADDS)

Output produced by TAFs form (1204 UTC 21 September 2017)
found at http://aviationweather.gov/adds/tafs/
 
Forecast for: FBKE (KASANE , BW)
Text: TAF FBKE 210900Z 2112/2121 08013KT CAVOK
Forecast period: 1200 to 2100 UTC 21 September 2017
Forecast type: FROM: standard forecast or significant change
Winds: from the E (80 degrees) at 15 MPH (13 knots; 6.8 m/s)
Visibility: 6 or more miles (10+ km)
Clouds: not forecast
Weather: NSW  (no significant weather)

Array
Maun - Botswana, FBMN

ADDS - TAFS form results

Aviation Digital Data Service (ADDS)

Output produced by TAFs form (1204 UTC 21 September 2017)
found at http://aviationweather.gov/adds/tafs/
 
Forecast for: FBMN (MAUN , BW)
Text: TAF FBMN 210900Z 2112/2121 08009KT CAVOK
Forecast period: 1200 to 2100 UTC 21 September 2017
Forecast type: FROM: standard forecast or significant change
Winds: from the E (80 degrees) at 10 MPH (9 knots; 4.7 m/s)
Visibility: 6 or more miles (10+ km)
Clouds: not forecast
Weather: NSW  (no significant weather)

Array
Gaberone Sir Seretsi Kama - Botswana, FBSK

ADDS - TAFS form results

Aviation Digital Data Service (ADDS)

Output produced by TAFs form (1204 UTC 21 September 2017)
found at http://aviationweather.gov/adds/tafs/
 
Forecast for: FBSK (SIR SERETSE KHAM, BW)
Text: TAF FBSK 210900Z 2112/2218 04013KT CAVOK
Forecast period: 1200 UTC 21 September 2017 to 1800 UTC 22 September 2017
Forecast type: FROM: standard forecast or significant change
Winds: from the NE (40 degrees) at 15 MPH (13 knots; 6.8 m/s)
Visibility: 6 or more miles (10+ km)
Clouds: not forecast
Weather: NSW  (no significant weather)

Array
Selebi Phikwe - Botswana, FBSP

ADDS - TAFS form results

Aviation Digital Data Service (ADDS)

Output produced by TAFs form (1204 UTC 21 September 2017)
found at http://aviationweather.gov/adds/tafs/
 
Forecast for: FBSP (SELEBI PHIKWE , BW)
Text: TAF FBSP 210900Z 2112/2121 10013KT CAVOK
Forecast period: 1200 to 2100 UTC 21 September 2017
Forecast type: FROM: standard forecast or significant change
Winds: from the E (100 degrees) at 15 MPH (13 knots; 6.8 m/s)
Visibility: 6 or more miles (10+ km)
Clouds: not forecast
Weather: NSW  (no significant weather)

Array